Cambria, Iowa
Current Conditions -  °F | °C
As of 3:15 AM on Wednesday 28 Jan 2015 (Local Time) from KCNC Reporting Station
Haze Haze  
Wind Chill: 19°   Ceiling: 400
Heat Index: 30°   Visibility: 3mi
Dew Point: 28°   Wind: 15mph
Humidity: 93%   Direction: 130°SE
Pressure: 30.07"   Gusts: NA
Location:  40.7685°N, 93.3285°W
Report Text: KCNC 280915Z AUTO 13013KT 3SM BR OVC004 M01/M02 A3007 RMK AO2
Loading
Personal Weather Stations






























Interactive Weather Map New forecast layout! Learn more

10-Day Weather Forecast

Advertisements
Track Severe Weather on mobile